Time;durP1;ratioP1;P1;durP2;ratioP2;P2;SDS_P1;SDS_P2;PMS_P1;PMS_P2;Temp;Humidity;BMP_temperature;BMP_pressure;BME280_temperature;BME280_humidity;BME280_pressure;Samples;Min_cycle;Max_cycle;Signal;HPM_P1;HPM_P2
2021/01/03 04:16:53;;;;;;;17.03;14.23;;;2.20;99.90;;;;;;5148608;27;20512;-93
2021/01/03 04:19:20;;;;;;;17.80;13.20;;;2.20;99.90;;;;;;5135716;28;20494;-93
2021/01/03 04:21:51;;;;;;;16.93;12.43;;;2.20;99.90;;;;;;5134969;28;20818;-93
2021/01/03 04:24:18;;;;;;;17.00;12.60;;;2.20;99.90;;;;;;5117250;28;20477;-93
2021/01/03 04:26:50;;;;;;;13.70;11.50;;;2.20;99.90;;;;;;5129700;28;20468;-93
2021/01/03 04:29:17;;;;;;;16.23;12.60;;;2.20;99.90;;;;;;5135591;28;20552;-93
2021/01/03 04:31:44;;;;;;;16.97;12.97;;;2.20;99.90;;;;;;5135685;27;20872;-93
2021/01/03 04:34:13;;;;;;;18.33;14.50;;;2.20;99.90;;;;;;5133936;28;20474;-93
2021/01/03 04:36:39;;;;;;;18.07;13.00;;;2.20;99.90;;;;;;5135152;28;20474;-92
2021/01/03 04:39:07;;;;;;;18.27;13.73;;;2.20;99.90;;;;;;5135475;28;20494;-93
2021/01/03 04:41:37;;;;;;;19.70;12.67;;;2.10;99.90;;;;;;5133220;28;20467;-92
2021/01/03 04:44:11;;;;;;;19.17;12.77;;;2.20;99.90;;;;;;5132106;27;20476;-93
2021/01/03 04:46:41;;;;;;;19.40;13.67;;;2.10;99.90;;;;;;5135443;28;20486;-93
2021/01/03 04:49:16;;;;;;;19.90;13.80;;;2.20;99.90;;;;;;5128621;28;20475;-92
2021/01/03 04:52:10;;;;;;;22.70;15.63;;;2.20;99.90;;;;;;5134218;28;20470;-93
2021/01/03 04:54:50;;;;;;;17.13;12.80;;;2.20;99.90;;;;;;5120201;28;20784;-93
2021/01/03 04:57:22;;;;;;;18.80;13.80;;;2.20;99.90;;;;;;5134353;28;20913;-92
2021/01/03 04:59:52;;;;;;;18.00;13.47;;;2.20;99.90;;;;;;5121763;27;20477;-93
2021/01/03 05:02:46;;;;;;;20.80;14.43;;;2.20;99.90;;;;;;5124582;28;20476;-93
2021/01/03 05:05:26;;;;;;;18.93;14.27;;;2.20;99.90;;;;;;5134827;28;20476;-93
2021/01/03 05:08:05;;;;;;;20.47;13.93;;;2.20;99.90;;;;;;5134785;28;20467;-93
2021/01/03 05:10:32;;;;;;;18.30;14.00;;;2.20;99.90;;;;;;5121416;27;20477;-93
2021/01/03 05:13:14;;;;;;;22.60;16.00;;;2.20;99.90;;;;;;5125638;28;20449;-93
2021/01/03 05:15:41;;;;;;;19.20;14.33;;;2.20;99.90;;;;;;5134163;28;20554;-93
2021/01/03 05:18:08;;;;;;;19.73;15.03;;;2.20;99.90;;;;;;5134419;28;20472;-93
2021/01/03 05:20:36;;;;;;;23.57;15.33;;;2.20;99.90;;;;;;5124519;28;20460;-92
2021/01/03 05:23:17;;;;;;;21.47;15.13;;;2.20;99.90;;;;;;5126312;28;20469;-93
2021/01/03 05:25:45;;;;;;;19.53;14.83;;;2.20;99.90;;;;;;5126201;28;20462;-93
2021/01/03 05:28:18;;;;;;;20.73;14.37;;;2.30;99.90;;;;;;5113791;28;20501;-93
2021/01/03 05:30:46;;;;;;;23.50;15.00;;;2.20;99.90;;;;;;5117786;28;20481;-92
2021/01/03 05:33:22;;;;;;;20.97;15.70;;;2.20;99.90;;;;;;5120766;28;20451;-92
2021/01/03 05:35:50;;;;;;;24.07;15.87;;;2.30;99.90;;;;;;5119814;28;20492;-92
2021/01/03 05:38:36;;;;;;;23.47;16.00;;;2.30;99.90;;;;;;5120256;28;20449;-93
2021/01/03 05:41:14;;;;;;;22.97;14.73;;;2.20;99.90;;;;;;5111446;28;20785;-93
2021/01/03 05:43:41;;;;;;;22.13;16.10;;;2.20;99.90;;;;;;5105880;28;20466;-91
2021/01/03 05:46:18;;;;;;;23.83;16.03;;;2.20;99.90;;;;;;5120339;28;20468;-90
2021/01/03 05:48:58;;;;;;;19.57;15.37;;;2.30;99.90;;;;;;5114720;28;20873;-91
2021/01/03 05:51:39;;;;;;;20.87;15.60;;;2.20;99.90;;;;;;5117213;28;20464;-90
2021/01/03 05:54:09;;;;;;;22.60;15.57;;;2.30;99.90;;;;;;5119693;28;20842;-91
2021/01/03 05:56:38;;;;;;;26.83;17.33;;;2.30;99.90;;;;;;5120040;28;20496;-91
2021/01/03 05:59:05;;;;;;;24.20;17.03;;;2.20;99.90;;;;;;5115086;28;20463;-91
2021/01/03 06:01:33;;;;;;;21.43;16.27;;;2.30;99.90;;;;;;5119045;28;20497;-90
2021/01/03 06:04:04;;;;;;;23.07;15.77;;;2.20;99.90;;;;;;5113506;28;20466;-91
2021/01/03 06:07:00;;;;;;;22.00;16.90;;;2.20;99.90;;;;;;5119493;28;20984;-91
2021/01/03 06:09:39;;;;;;;20.47;15.40;;;2.20;99.90;;;;;;5117514;28;20472;-90
2021/01/03 06:12:13;;;;;;;22.00;16.80;;;2.30;99.90;;;;;;5118735;28;20745;-91
2021/01/03 06:14:40;;;;;;;25.00;15.43;;;2.30;99.90;;;;;;5119489;28;20494;-90
2021/01/03 06:17:17;;;;;;;24.00;15.87;;;2.30;99.90;;;;;;5118804;28;20465;-91
2021/01/03 06:19:48;;;;;;;21.63;15.93;;;2.20;99.90;;;;;;5119179;28;20469;-90
2021/01/03 06:22:37;;;;;;;25.30;16.80;;;2.30;99.90;;;;;;5115195;28;20466;-90
2021/01/03 06:25:15;;;;;;;22.63;15.20;;;2.30;99.90;;;;;;5119208;28;20538;-91
2021/01/03 06:27:46;;;;;;;23.10;15.43;;;2.30;99.90;;;;;;5118901;28;20474;-91
2021/01/03 06:30:15;;;;;;;23.93;16.00;;;2.40;99.90;;;;;;5116673;28;20507;-91
2021/01/03 06:33:13;;;;;;;18.77;13.93;;;2.30;99.90;;;;;;5119430;28;20565;-90
2021/01/03 06:35:45;;;;;;;22.97;15.17;;;2.30;99.90;;;;;;5099284;28;20459;-90
2021/01/03 06:38:18;;;;;;;20.30;15.57;;;2.30;99.90;;;;;;5114567;28;20499;-91
2021/01/03 06:40:55;;;;;;;21.90;14.07;;;2.30;99.90;;;;;;5119395;28;20435;-90
2021/01/03 06:43:58;;;;;;;17.97;12.37;;;2.30;99.90;;;;;;5119654;28;20449;-90
2021/01/03 06:47:04;;;;;;;21.90;14.23;;;2.30;99.90;;;;;;5104975;28;20499;-91
2021/01/03 06:50:13;;;;;;;18.30;13.00;;;2.30;99.90;;;;;;5113274;28;20606;-91
2021/01/03 06:53:00;;;;;;;18.67;12.77;;;2.30;99.90;;;;;;5035313;28;20461;-91
2021/01/03 06:55:56;;;;;;;13.27;10.83;;;2.30;99.90;;;;;;5034671;28;20612;-91
2021/01/03 06:59:01;;;;;;;14.63;11.20;;;2.30;99.90;;;;;;5102671;28;20519;-90
2021/01/03 07:01:30;;;;;;;11.90;10.30;;;2.30;99.90;;;;;;5112369;28;20461;-91
2021/01/03 07:03:59;;;;;;;15.07;11.20;;;2.20;99.90;;;;;;5117771;28;20470;-91
2021/01/03 07:06:32;;;;;;;11.43;10.17;;;2.30;99.90;;;;;;5109533;28;20477;-91
2021/01/03 07:09:05;;;;;;;16.47;10.40;;;2.30;99.90;;;;;;5104883;28;20477;-91
2021/01/03 07:11:48;;;;;;;14.17;10.70;;;2.30;99.90;;;;;;5118276;28;20527;-90
2021/01/03 07:14:47;;;;;;;16.43;11.73;;;2.30;99.90;;;;;;5113453;28;20469;-91
2021/01/03 07:17:16;;;;;;;12.20;10.00;;;2.30;99.90;;;;;;5075493;28;20855;-90
2021/01/03 07:19:51;;;;;;;14.03;9.97;;;2.30;99.90;;;;;;5076965;28;20971;-91
2021/01/03 07:22:23;;;;;;;13.53;9.97;;;2.30;99.90;;;;;;5077178;28;20474;-90
2021/01/03 07:25:21;;;;;;;13.27;10.23;;;2.30;99.90;;;;;;5071269;28;20954;-91
2021/01/03 07:28:11;;;;;;;13.30;10.10;;;2.30;99.90;;;;;;5074979;28;20531;-91
2021/01/03 07:30:48;;;;;;;11.40;10.07;;;2.20;99.90;;;;;;5076835;28;20549;-91
2021/01/03 07:33:39;;;;;;;11.73;10.23;;;2.30;99.90;;;;;;5077537;28;20463;-91
2021/01/03 07:36:21;;;;;;;12.13;9.77;;;2.30;99.90;;;;;;5067087;28;20477;-91
2021/01/03 07:39:20;;;;;;;11.97;9.80;;;2.20;99.90;;;;;;5074498;28;20468;-90
2021/01/03 07:41:49;;;;;;;11.47;8.87;;;2.30;99.90;;;;;;5077320;28;20789;-90
2021/01/03 07:44:33;;;;;;;12.43;9.70;;;2.30;99.90;;;;;;5077621;28;20472;-90
2021/01/03 07:47:01;;;;;;;10.90;9.17;;;2.20;99.90;;;;;;5077339;28;20485;-90
2021/01/03 07:49:44;;;;;;;11.87;10.43;;;2.20;99.90;;;;;;5074765;28;20779;-90
2021/01/03 07:52:39;;;;;;;12.03;9.80;;;2.30;99.90;;;;;;5075616;28;20462;-89
2021/01/03 07:55:15;;;;;;;11.53;9.33;;;2.30;99.90;;;;;;5077335;28;20538;-91
2021/01/03 07:57:42;;;;;;;10.87;9.67;;;2.30;99.90;;;;;;5070938;28;20564;-91
2021/01/03 08:00:16;;;;;;;13.53;9.93;;;2.40;99.90;;;;;;5069166;28;20472;-91
2021/01/03 08:02:43;;;;;;;10.70;8.63;;;2.40;99.90;;;;;;5076611;28;20473;-91
2021/01/03 08:05:12;;;;;;;10.83;9.60;;;2.30;99.90;;;;;;5077073;28;20463;-91
2021/01/03 08:07:40;;;;;;;13.07;9.93;;;2.30;99.90;;;;;;5077338;28;20441;-91
2021/01/03 08:10:10;;;;;;;12.93;9.87;;;2.30;99.90;;;;;;5076593;28;20458;-90
2021/01/03 08:12:40;;;;;;;11.83;9.37;;;2.40;99.90;;;;;;5077018;28;20469;-91
2021/01/03 08:15:12;;;;;;;11.30;9.87;;;2.40;99.90;;;;;;5082552;28;20493;-91
2021/01/03 08:17:43;;;;;;;10.90;9.30;;;2.40;99.90;;;;;;5114140;28;20477;-91
2021/01/03 08:20:20;;;;;;;10.47;9.00;;;2.40;99.90;;;;;;5103312;28;20513;-91
2021/01/03 08:22:48;;;;;;;11.83;9.20;;;2.30;99.90;;;;;;5114849;28;20772;-91
2021/01/03 08:25:19;;;;;;;11.50;9.23;;;2.30;99.90;;;;;;5116807;28;20470;-91
2021/01/03 08:27:53;;;;;;;11.00;9.80;;;2.30;99.90;;;;;;5107566;28;20501;-91
2021/01/03 08:30:25;;;;;;;13.47;9.70;;;2.40;99.90;;;;;;5114047;28;20784;-91
2021/01/03 08:32:53;;;;;;;12.50;9.97;;;2.30;99.90;;;;;;5117138;28;20494;-91
2021/01/03 08:35:27;;;;;;;12.63;9.73;;;2.40;99.90;;;;;;5117277;28;20946;-91
2021/01/03 08:37:54;;;;;;;13.60;10.80;;;2.40;99.90;;;;;;5117923;28;20765;-91
2021/01/03 08:40:25;;;;;;;14.00;10.20;;;2.40;99.90;;;;;;5117295;28;20567;-91
2021/01/03 08:42:59;;;;;;;11.13;9.97;;;2.40;99.90;;;;;;5112198;28;20466;-91
2021/01/03 08:45:33;;;;;;;14.17;10.23;;;2.40;99.90;;;;;;5116819;28;20482;-91
2021/01/03 08:48:06;;;;;;;10.23;9.07;;;2.40;99.90;;;;;;5117692;28;20473;-91
2021/01/03 08:50:36;;;;;;;13.10;10.43;;;2.40;99.90;;;;;;5117162;28;20761;-91
2021/01/03 08:53:07;;;;;;;11.60;9.50;;;2.40;99.90;;;;;;5109711;28;20577;-91
2021/01/03 08:55:36;;;;;;;13.13;10.40;;;2.40;99.90;;;;;;5100688;28;20853;-90
2021/01/03 08:58:05;;;;;;;13.60;10.20;;;2.40;99.90;;;;;;5117813;28;20443;-91
2021/01/03 09:00:37;;;;;;;11.87;10.00;;;2.40;99.90;;;;;;5114039;28;20440;-91
2021/01/03 09:03:10;;;;;;;12.37;10.63;;;2.40;99.90;;;;;;5114034;28;20542;-91
2021/01/03 09:05:40;;;;;;;12.30;11.03;;;2.40;99.90;;;;;;5121776;28;20476;-91
2021/01/03 09:08:10;;;;;;;13.13;11.07;;;2.50;99.90;;;;;;5113860;28;20454;-90
2021/01/03 09:10:42;;;;;;;12.50;10.50;;;2.50;99.90;;;;;;5119000;28;20943;-90
2021/01/03 09:13:20;;;;;;;12.93;10.53;;;2.50;99.90;;;;;;5113220;28;20442;-91
2021/01/03 09:16:00;;;;;;;12.13;10.83;;;2.50;99.90;;;;;;5101962;28;20970;-91
2021/01/03 09:18:32;;;;;;;10.87;9.67;;;2.60;1.00;;;;;;5111262;28;20523;-91
2021/01/03 09:21:05;;;;;;;12.90;11.60;;;2.60;1.00;;;;;;5111714;28;20910;-91
2021/01/03 09:23:35;;;;;;;12.40;10.50;;;2.50;1.00;;;;;;5111723;28;20477;-91
2021/01/03 09:26:02;;;;;;;11.77;10.60;;;2.60;1.00;;;;;;5100134;28;20495;-91
2021/01/03 09:28:32;;;;;;;10.10;9.10;;;2.50;1.00;;;;;;5114040;28;20784;-91
2021/01/03 09:31:25;;;;;;;11.57;10.37;;;2.60;99.90;;;;;;5110053;28;20467;-91
2021/01/03 09:33:54;;;;;;;11.90;9.70;;;2.60;99.90;;;;;;5101090;28;20466;-91
2021/01/03 09:36:47;;;;;;;11.13;9.83;;;2.60;99.90;;;;;;5111917;28;20836;-91
2021/01/03 09:39:45;;;;;;;9.77;8.77;;;2.60;99.90;;;;;;5120343;28;20445;-91
2021/01/03 09:42:44;;;;;;;10.73;9.70;;;2.60;99.90;;;;;;5082051;28;20502;-90
2021/01/03 09:45:45;;;;;;;10.23;9.23;;;2.60;99.90;;;;;;5120247;28;20830;-89
2021/01/03 09:48:29;;;;;;;10.23;9.20;;;2.60;99.90;;;;;;5114515;28;20432;-91
2021/01/03 09:51:07;;;;;;;10.13;8.73;;;2.70;99.90;;;;;;5118949;28;20553;-91
2021/01/03 09:53:40;;;;;;;10.43;9.27;;;2.70;99.90;;;;;;5105967;28;20556;-91
2021/01/03 09:56:21;;;;;;;10.63;9.53;;;2.80;99.90;;;;;;5120632;28;20502;-91
2021/01/03 09:58:52;;;;;;;9.70;8.70;;;2.80;99.90;;;;;;5113137;28;20903;-91
2021/01/03 10:01:30;;;;;;;9.93;9.03;;;2.80;99.90;;;;;;5107112;28;20471;-91
2021/01/03 10:04:14;;;;;;;12.07;10.17;;;2.80;99.90;;;;;;5113748;28;20510;-91
2021/01/03 10:06:44;;;;;;;10.43;8.90;;;2.90;99.90;;;;;;5113128;28;20487;-91
2021/01/03 10:09:13;;;;;;;10.20;8.93;;;2.90;74.80;;;;;;5114907;28;20462;-91
2021/01/03 10:11:42;;;;;;;9.47;8.57;;;2.90;99.90;;;;;;5118708;28;20433;-91
2021/01/03 10:14:12;;;;;;;12.00;9.47;;;2.90;61.60;;;;;;5111144;28;20514;-91
2021/01/03 10:16:40;;;;;;;10.10;9.10;;;2.90;87.70;;;;;;5112513;28;20504;-90
2021/01/03 10:19:17;;;;;;;10.30;9.27;;;2.90;50.00;;;;;;5117751;28;20545;-90
2021/01/03 10:21:45;;;;;;;9.53;8.37;;;2.90;43.20;;;;;;5117017;28;20821;-90
2021/01/03 10:24:16;;;;;;;14.50;11.20;;;3.00;72.50;;;;;;5115099;28;20547;-90
2021/01/03 10:26:44;;;;;;;13.10;10.70;;;3.00;81.20;;;;;;5116655;28;20542;-90
2021/01/03 10:29:14;;;;;;;11.10;9.90;;;3.00;63.40;;;;;;5117859;28;20552;-91
2021/01/03 10:31:43;;;;;;;11.77;9.43;;;3.00;71.50;;;;;;5118018;28;20469;-91
2021/01/03 10:34:10;;;;;;;10.37;9.37;;;3.00;92.40;;;;;;5118714;28;20532;-91
2021/01/03 10:36:40;;;;;;;10.30;9.20;;;3.10;84.90;;;;;;5117902;28;20497;-91
2021/01/03 10:39:10;;;;;;;9.93;9.03;;;3.10;52.30;;;;;;5111335;28;20463;-91
2021/01/03 10:41:40;;;;;;;9.83;8.80;;;3.10;46.00;;;;;;5112937;28;20506;-91
2021/01/03 10:44:11;;;;;;;11.03;9.13;;;3.10;40.70;;;;;;5112973;28;20463;-91
2021/01/03 10:46:40;;;;;;;9.63;8.63;;;3.20;40.00;;;;;;5118991;28;20462;-91
2021/01/03 10:49:10;;;;;;;8.43;7.53;;;3.20;36.00;;;;;;5118141;28;20433;-91
2021/01/03 10:51:42;;;;;;;10.03;8.80;;;3.10;27.70;;;;;;5117615;28;20738;-91
2021/01/03 10:54:13;;;;;;;10.83;8.90;;;3.10;86.40;;;;;;5118243;28;20559;-92
2021/01/03 10:56:41;;;;;;;9.10;8.00;;;3.10;72.50;;;;;;5114473;28;20487;-91
2021/01/03 10:59:09;;;;;;;8.90;8.00;;;3.00;71.10;;;;;;5117896;28;20482;-91
2021/01/03 11:01:40;;;;;;;10.97;8.87;;;3.10;99.90;;;;;;5118774;28;20561;-91
2021/01/03 11:04:08;;;;;;;8.37;7.30;;;3.10;99.90;;;;;;5118692;28;20474;-91
2021/01/03 11:06:39;;;;;;;9.50;8.60;;;3.10;94.40;;;;;;5117558;28;20461;-91
2021/01/03 11:09:09;;;;;;;9.70;7.97;;;3.10;99.90;;;;;;5112161;28;20476;-91
2021/01/03 11:11:37;;;;;;;9.50;7.90;;;3.10;99.90;;;;;;5108506;28;20461;-91
2021/01/03 11:14:05;;;;;;;8.63;7.73;;;3.10;99.90;;;;;;5118522;28;20460;-91
2021/01/03 11:16:35;;;;;;;8.30;7.47;;;3.00;99.90;;;;;;5118262;28;20531;-91
2021/01/03 11:19:03;;;;;;;11.27;7.80;;;3.10;99.90;;;;;;5118773;28;20470;-91
2021/01/03 11:21:31;;;;;;;8.57;7.10;;;3.00;99.90;;;;;;5113079;28;20588;-91
2021/01/03 11:24:00;;;;;;;9.77;8.77;;;3.10;99.90;;;;;;5117357;28;20492;-91
2021/01/03 11:26:30;;;;;;;8.40;7.60;;;3.00;99.90;;;;;;5118819;28;20482;-91
2021/01/03 11:28:59;;;;;;;10.43;7.23;;;3.10;99.90;;;;;;5117233;28;20501;-91
2021/01/03 11:31:36;;;;;;;7.87;7.07;;;3.10;99.90;;;;;;5118133;28;20480;-91
2021/01/03 11:34:05;;;;;;;11.27;7.60;;;3.20;99.90;;;;;;5118576;28;20558;-91
2021/01/03 11:36:35;;;;;;;8.63;7.40;;;3.20;99.90;;;;;;5117801;28;20488;-91
2021/01/03 11:39:08;;;;;;;8.13;7.30;;;3.30;99.90;;;;;;5111129;28;20844;-91
2021/01/03 11:41:39;;;;;;;7.10;6.10;;;3.30;99.90;;;;;;5112941;28;20474;-91
2021/01/03 11:44:07;;;;;;;7.00;6.30;;;3.30;95.60;;;;;;5118296;28;20474;-91
2021/01/03 11:46:35;;;;;;;7.20;6.47;;;3.10;63.10;;;;;;5118320;28;20467;-91
2021/01/03 11:49:05;;;;;;;7.10;6.40;;;3.20;99.90;;;;;;5117540;28;20489;-91
2021/01/03 11:51:33;;;;;;;11.40;7.40;;;3.20;99.90;;;;;;5118351;28;20473;-91
2021/01/03 11:54:02;;;;;;;7.60;6.80;;;3.20;99.90;;;;;;5117037;28;20466;-91
2021/01/03 11:56:34;;;;;;;6.93;5.90;;;3.20;99.90;;;;;;5117463;28;20929;-91
2021/01/03 11:59:02;;;;;;;7.80;6.03;;;3.20;99.90;;;;;;5118062;28;20471;-91
2021/01/03 12:01:29;;;;;;;6.53;5.70;;;3.10;99.90;;;;;;5118205;28;20479;-91
2021/01/03 12:03:57;;;;;;;6.63;5.97;;;3.20;99.90;;;;;;5118167;28;20445;-91
2021/01/03 12:06:24;;;;;;;7.37;6.30;;;3.20;99.90;;;;;;5117392;28;20519;-91
2021/01/03 12:08:52;;;;;;;7.03;5.90;;;3.10;99.90;;;;;;5117386;28;20788;-91
2021/01/03 18:56:28;;;;;;;7.13;6.27;;;1.60;99.90;;;;;;5056451;28;20482;-92
2021/01/03 19:04:32;;;;;;;7.40;6.60;;;1.60;99.90;;;;;;5050877;28;20463;-92
2021/01/03 19:07:07;;;;;;;7.90;7.10;;;1.60;99.90;;;;;;5057079;28;20426;-92
2021/01/03 20:41:45;;;;;;;5.70;5.10;;;1.50;99.90;;;;;;678224;22;21996;-92
